Time;durP1;ratioP1;P1;durP2;ratioP2;P2;SDS_P1;SDS_P2;PMS_P1;PMS_P2;Temp;Humidity;BMP_temperature;BMP_pressure;BME280_temperature;BME280_humidity;BME280_pressure;Samples;Min_cycle;Max_cycle;Signal;HPM_P1;HPM_P2
2023/10/30 00:00:37;;;;;;;27.00;1.63;;;;;;;22.45;62.84;98208.91;7311438;19;130097;-36
2023/10/30 00:03:03;;;;;;;29.50;1.77;;;;;;;22.45;63.10;98222.00;7307857;19;130304;-37
2023/10/30 00:05:29;;;;;;;52.10;2.77;;;;;;;22.43;63.16;98221.38;7310790;19;129459;-36
2023/10/30 00:07:55;;;;;;;33.67;1.97;;;;;;;22.42;63.15;98230.19;7311324;19;130421;-37
2023/10/30 00:10:21;;;;;;;86.27;5.50;;;;;;;22.41;62.60;98226.75;7309706;19;129518;-34
2023/10/30 00:12:46;;;;;;;20.80;1.53;;;;;;;22.39;63.10;98223.53;7310937;19;131506;-40
2023/10/30 00:15:11;;;;;;;72.33;3.90;;;;;;;22.38;63.10;98221.09;7306701;19;129020;-33
2023/10/30 00:17:37;;;;;;;14.67;1.23;;;;;;;22.40;62.66;98222.53;7311782;19;128973;-33
2023/10/30 00:20:03;;;;;;;29.87;1.97;;;;;;;22.42;62.83;98227.59;7310679;19;129592;-36
2023/10/30 00:22:28;;;;;;;27.75;1.77;;;;;;;22.42;63.21;98217.09;7307253;19;130301;-36
2023/10/30 00:24:54;;;;;;;88.40;4.85;;;;;;;22.42;63.38;98211.88;7309917;19;129205;-35
2023/10/30 00:27:19;;;;;;;35.53;2.13;;;;;;;22.42;63.24;98202.22;7310925;19;128950;-35
2023/10/30 00:29:44;;;;;;;30.15;1.88;;;;;;;22.42;63.11;98204.03;7311193;19;130453;-39
2023/10/30 00:32:10;;;;;;;52.10;3.10;;;;;;;22.38;63.31;98215.84;7309474;19;130429;-38
2023/10/30 00:34:35;;;;;;;65.90;3.47;;;;;;;22.36;63.32;98229.09;7307678;19;129534;-34
2023/10/30 00:37:01;;;;;;;31.45;1.85;;;;;;;22.39;63.06;98223.53;7309847;19;129732;-34
2023/10/30 00:39:27;;;;;;;69.93;4.07;;;;;;;22.39;62.77;98220.09;7308486;19;130363;-40
2023/10/30 00:41:53;;;;;;;50.45;2.83;;;;;;;22.37;63.13;98224.69;7310086;19;130396;-38
2023/10/30 00:44:18;;;;;;;59.03;3.23;;;;;;;22.36;63.63;98244.00;7308263;19;130151;-39
2023/10/30 00:46:44;;;;;;;24.63;1.60;;;;;;;22.30;62.49;98231.63;7311268;19;129600;-33
2023/10/30 00:49:09;;;;;;;30.80;2.07;;;;;;;22.31;62.79;98228.84;7308908;19;130181;-34
2023/10/30 00:51:34;;;;;;;49.47;2.97;;;;;;;22.34;63.66;98248.63;7308647;19;129706;-35
2023/10/30 00:54:00;;;;;;;58.80;3.37;;;;;;;22.33;63.55;98260.09;7308487;19;129091;-35
2023/10/30 00:56:25;;;;;;;25.00;1.70;;;;;;;22.30;63.47;98265.66;7310478;19;129723;-36
2023/10/30 00:58:50;;;;;;;21.58;1.42;;;;;;;22.33;63.34;98273.97;7308917;19;129728;-41
2023/10/30 01:01:17;;;;;;;95.20;5.07;;;;;;;22.29;63.54;98269.28;7307278;19;129290;-35
2023/10/30 01:03:43;;;;;;;24.80;1.52;;;;;;;22.30;63.50;98263.03;7309383;19;130301;-36
2023/10/30 01:06:09;;;;;;;31.15;1.92;;;;;;;22.28;63.49;98255.34;7307914;19;129197;-36
2023/10/30 01:08:34;;;;;;;36.30;2.33;;;;;;;22.25;63.91;98247.84;7308384;19;129244;-34
2023/10/30 01:10:59;;;;;;;76.50;3.97;;;;;;;22.28;64.05;98251.94;7307324;19;129572;-37
2023/10/30 01:13:26;;;;;;;57.17;3.45;;;;;;;22.28;63.39;98273.69;7307568;19;129010;-34
2023/10/30 01:15:53;;;;;;;23.58;1.50;;;;;;;22.26;63.32;98275.69;7309577;19;129692;-37
2023/10/30 01:18:18;;;;;;;32.03;1.98;;;;;;;22.27;63.90;98286.94;7308844;19;130209;-38
2023/10/30 01:20:44;;;;;;;54.03;3.00;;;;;;;22.27;63.76;98292.19;7307999;19;129756;-41
2023/10/30 01:23:09;;;;;;;48.60;2.87;;;;;;;22.27;63.99;98286.94;7307784;19;128939;-36
2023/10/30 01:25:35;;;;;;;32.63;2.07;;;;;;;22.27;63.60;98271.25;7308454;19;129269;-38
2023/10/30 01:28:00;;;;;;;60.25;3.22;;;;;;;22.25;64.03;98257.50;7308102;19;129366;-36
2023/10/30 01:30:25;;;;;;;105.13;5.97;;;;;;;22.28;63.91;98278.91;7307727;19;129700;-36
2023/10/30 01:32:51;;;;;;;48.33;2.67;;;;;;;22.22;63.61;98250.84;7308220;19;129275;-36
2023/10/30 01:35:16;;;;;;;40.70;2.37;;;;;;;22.28;63.56;98263.22;7310854;19;129242;-32
2023/10/30 01:37:42;;;;;;;68.88;3.78;;;;;;;22.28;64.21;98265.03;7314615;19;129225;-39
2023/10/30 01:40:09;;;;;;;49.13;2.63;;;;;;;22.27;63.96;98276.47;7315559;19;130402;-37
2023/10/30 01:42:34;;;;;;;31.58;2.13;;;;;;;22.29;63.66;98283.19;7314509;19;128973;-36
2023/10/30 01:45:00;;;;;;;31.33;2.07;;;;;;;22.29;63.66;98274.50;7314245;19;129267;-36
2023/10/30 01:47:25;;;;;;;69.37;3.77;;;;;;;22.31;64.11;98272.53;7314345;19;130019;-36
2023/10/30 01:49:55;;;;;;;41.03;2.28;;;;;;;22.31;64.13;98272.53;7315827;19;130330;-38
2023/10/30 01:52:21;;;;;;;45.95;2.90;;;;;;;22.21;63.04;98257.06;7312376;19;130138;-36
2023/10/30 01:54:48;;;;;;;28.05;1.73;;;;;;;22.34;63.56;98273.00;7313390;19;129046;-37
2023/10/30 01:57:20;;;;;;;70.03;3.72;;;;;;;22.34;64.54;98280.03;7311891;19;130520;-34
2023/10/30 01:59:47;;;;;;;62.00;3.22;;;;;;;22.35;63.04;98285.09;7315126;19;129760;-37
2023/10/30 02:02:12;;;;;;;49.47;2.80;;;;;;;22.37;63.00;98282.28;7314556;19;129109;-40
2023/10/30 02:04:37;;;;;;;30.92;2.03;;;;;;;22.34;63.37;98298.38;7314612;19;129313;-36
2023/10/30 02:07:03;;;;;;;66.23;3.70;;;;;;;22.33;63.51;98296.75;7312465;19;131227;-31
2023/10/30 02:09:30;;;;;;;58.93;3.40;;;;;;;22.30;63.11;98305.75;7313960;19;131177;-37
2023/10/30 02:11:57;;;;;;;34.38;2.00;;;;;;;22.29;63.84;98305.94;7314790;19;129770;-35
2023/10/30 02:14:23;;;;;;;38.38;2.53;;;;;;;22.29;63.43;98311.16;7313195;19;129034;-32
2023/10/30 02:16:49;;;;;;;46.80;2.47;;;;;;;22.28;63.83;98305.09;7313833;19;130193;-35
2023/10/30 02:19:21;;;;;;;55.45;3.17;;;;;;;22.26;64.42;98312.34;7312466;19;129963;-43
2023/10/30 02:21:47;;;;;;;29.48;1.77;;;;;;;22.26;63.64;98314.13;7315045;19;128818;-38
2023/10/30 02:24:13;;;;;;;28.23;1.77;;;;;;;22.20;63.27;98307.78;7312302;19;129726;-31
2023/10/30 02:26:39;;;;;;;30.13;1.90;;;;;;;22.23;63.91;98306.63;7314320;19;129789;-40
2023/10/30 02:29:05;;;;;;;89.93;4.53;;;;;;;22.14;63.24;98302.44;7314030;19;130426;-37
2023/10/30 02:31:32;;;;;;;39.47;2.45;;;;;;;22.24;63.21;98308.25;7313138;19;129015;-40
2023/10/30 02:33:59;;;;;;;38.33;2.33;;;;;;;22.23;63.39;98322.34;7311231;19;129263;-35
2023/10/30 02:36:25;;;;;;;63.22;3.63;;;;;;;22.25;62.94;98322.97;7313746;19;129098;-36
2023/10/30 02:38:50;;;;;;;63.80;3.37;;;;;;;22.26;63.59;98329.84;7313623;19;129318;-35
2023/10/30 02:41:15;;;;;;;27.08;1.60;;;;;;;22.25;62.90;98336.06;7312728;19;129823;-35
2023/10/30 02:43:41;;;;;;;25.92;1.55;;;;;;;22.26;63.49;98327.22;7312310;19;129021;-35
2023/10/30 02:46:06;;;;;;;36.73;2.10;;;;;;;22.27;63.33;98344.56;7312187;19;129175;-34
2023/10/30 02:48:31;;;;;;;68.32;3.72;;;;;;;22.25;62.81;98351.75;7313180;19;129112;-34
2023/10/30 02:50:59;;;;;;;26.60;1.60;;;;;;;22.24;63.12;98344.91;7314504;19;129169;-32
2023/10/30 02:53:25;;;;;;;40.40;2.30;;;;;;;22.24;62.53;98344.91;7310475;19;129518;-33
2023/10/30 02:55:50;;;;;;;36.37;2.20;;;;;;;22.23;63.16;98338.06;7314072;19;129751;-33
2023/10/30 02:58:15;;;;;;;46.75;2.63;;;;;;;22.23;63.03;98343.28;7313531;19;129810;-40
2023/10/30 03:00:41;;;;;;;36.23;2.23;;;;;;;22.24;63.20;98339.66;7313154;19;129137;-33
2023/10/30 03:03:06;;;;;;;46.77;2.53;;;;;;;22.27;63.44;98344.56;7311293;19;130137;-40
2023/10/30 03:05:32;;;;;;;48.33;2.80;;;;;;;22.25;63.06;98341.28;7311993;19;130114;-34
2023/10/30 03:07:57;;;;;;;52.40;2.85;;;;;;;22.24;62.73;98344.91;7313956;19;129251;-39
2023/10/30 03:10:22;;;;;;;76.73;4.77;;;;;;;22.15;62.85;98331.06;7312590;19;129035;-36
2023/10/30 03:12:48;;;;;;;43.83;2.50;;;;;;;22.24;62.74;98366.66;7311934;19;128991;-37
2023/10/30 03:15:14;;;;;;;90.30;4.50;;;;;;;22.26;62.66;98369.94;7309574;19;129433;-37
2023/10/30 03:17:39;;;;;;;34.87;2.03;;;;;;;22.26;62.81;98364.72;7312758;19;130379;-37
2023/10/30 03:20:08;;;;;;;27.87;1.70;;;;;;;22.25;62.59;98351.75;7312407;19;129221;-37
2023/10/30 03:22:33;;;;;;;45.90;2.72;;;;;;;22.25;62.72;98320.34;7310881;19;129661;-36
2023/10/30 03:24:59;;;;;;;73.37;3.90;;;;;;;22.23;62.90;98296.97;7312411;19;129716;-36
2023/10/30 03:27:24;;;;;;;51.53;3.03;;;;;;;22.21;62.62;98313.84;7311146;19;130505;-37
2023/10/30 03:29:50;;;;;;;34.70;2.00;;;;;;;22.23;63.11;98327.56;7311707;19;129154;-32
2023/10/30 03:32:15;;;;;;;39.10;2.13;;;;;;;22.21;62.99;98334.78;7311267;19;129328;-38
2023/10/30 03:34:40;;;;;;;66.23;3.30;;;;;;;22.23;63.08;98343.28;7310501;19;129428;-40
2023/10/30 03:37:07;;;;;;;45.23;2.53;;;;;;;22.24;63.11;98344.91;7312628;19;130328;-35
2023/10/30 03:39:32;;;;;;;69.50;4.00;;;;;;;22.22;63.03;98367.81;7310169;19;128808;-37
2023/10/30 03:41:58;;;;;;;51.67;2.88;;;;;;;22.20;62.80;98361.94;7310428;19;129155;-31
2023/10/30 03:44:26;;;;;;;69.43;3.73;;;;;;;22.22;62.79;98362.59;7311940;19;131327;-32
2023/10/30 03:46:51;;;;;;;32.47;1.88;;;;;;;22.22;63.15;98352.13;7312073;19;129735;-36
2023/10/30 03:49:16;;;;;;;21.57;1.43;;;;;;;22.22;62.71;98349.50;7309540;19;129023;-40
2023/10/30 03:51:42;;;;;;;61.97;3.47;;;;;;;22.22;63.01;98349.50;7310133;19;129197;-34
2023/10/30 03:54:08;;;;;;;56.67;3.23;;;;;;;22.22;63.07;98357.34;7309517;19;129900;-36
2023/10/30 03:56:33;;;;;;;40.03;2.30;;;;;;;22.23;62.69;98353.75;7310983;19;129977;-34
2023/10/30 03:58:59;;;;;;;118.13;7.72;;;;;;;22.20;63.11;98348.84;7303387;19;128675;-33
2023/10/30 04:01:24;;;;;;;59.47;3.37;;;;;;;22.21;63.21;98361.78;7307870;19;129442;-37
2023/10/30 04:03:49;;;;;;;34.63;1.92;;;;;;;22.21;62.60;98334.78;7310437;19;129188;-31
2023/10/30 04:06:15;;;;;;;29.30;2.20;;;;;;;22.22;62.86;98326.75;7311224;19;129544;-34
2023/10/30 04:08:40;;;;;;;29.70;1.87;;;;;;;22.22;63.10;98336.41;7311140;19;129157;-38
2023/10/30 04:11:11;;;;;;;86.37;4.40;;;;;;;22.21;63.24;98340.03;7308566;19;128915;-34
2023/10/30 04:13:37;;;;;;;40.55;2.55;;;;;;;22.21;62.89;98342.63;7307900;19;130154;-33
2023/10/30 04:16:03;;;;;;;29.33;1.83;;;;;;;22.21;63.21;98340.03;7310435;19;132770;-33
2023/10/30 04:18:28;;;;;;;49.20;2.73;;;;;;;22.20;62.77;98338.38;7311108;19;129031;-33
2023/10/30 04:20:54;;;;;;;63.50;3.27;;;;;;;22.14;62.22;98318.13;7311979;19;129104;-29
2023/10/30 04:23:19;;;;;;;43.03;2.60;;;;;;;22.21;62.72;98308.59;7307636;19;131093;-33
2023/10/30 04:25:45;;;;;;;26.92;1.58;;;;;;;22.20;62.50;98346.22;7311291;19;130753;-33
2023/10/30 04:28:10;;;;;;;33.90;1.97;;;;;;;22.23;62.76;98359.00;7311643;19;129232;-27
2023/10/30 04:30:36;;;;;;;79.75;4.30;;;;;;;22.23;62.23;98345.91;7310365;19;129519;-32
2023/10/30 04:33:02;;;;;;;40.70;2.20;;;;;;;22.22;62.51;98358.16;7310020;19;130379;-36
2023/10/30 04:35:27;;;;;;;48.17;2.97;;;;;;;22.23;62.50;98344.09;7308476;19;130412;-30
2023/10/30 04:37:53;;;;;;;25.27;1.63;;;;;;;22.18;62.98;98329.91;7312710;19;130220;-32
2023/10/30 04:40:19;;;;;;;91.17;4.63;;;;;;;22.09;62.71;98321.28;7310104;19;129519;-35
2023/10/30 04:42:44;;;;;;;17.30;1.33;;;;;;;22.14;63.25;98318.13;7308416;19;130197;-34
2023/10/30 04:45:10;;;;;;;29.27;1.70;;;;;;;22.24;61.96;98310.88;7303903;19;131979;-37
2023/10/30 04:47:36;;;;;;;61.60;3.40;;;;;;;22.49;61.51;98297.44;7309710;19;129986;-30
2023/10/30 04:50:02;;;;;;;64.63;3.33;;;;;;;22.56;60.97;98293.13;7309613;19;129619;-35
2023/10/30 04:52:27;;;;;;;44.92;2.55;;;;;;;22.61;61.24;98290.00;7308088;19;130353;-36
2023/10/30 04:54:53;;;;;;;25.33;1.43;;;;;;;22.71;60.82;98306.28;7308031;19;129334;-34
2023/10/30 04:57:18;;;;;;;76.70;4.40;;;;;;;22.81;60.93;98318.09;7307319;19;129572;-32
2023/10/30 04:59:43;;;;;;;68.40;3.67;;;;;;;22.83;60.50;98321.38;7309743;19;129477;-37
2023/10/30 05:02:09;;;;;;;31.30;1.73;;;;;;;22.91;60.29;98328.31;7307495;19;129481;-36
2023/10/30 05:04:34;;;;;;;39.40;2.40;;;;;;;22.96;60.02;98332.06;7308798;19;130027;-35
2023/10/30 05:07:00;;;;;;;76.00;3.73;;;;;;;22.92;60.41;98298.53;7308953;19;130369;-34
2023/10/30 05:09:25;;;;;;;42.85;2.30;;;;;;;23.10;59.88;98323.41;7311271;19;129074;-36
2023/10/30 05:11:50;;;;;;;55.80;3.53;;;;;;;23.13;59.96;98311.72;7311188;19;129467;-39
2023/10/30 05:14:16;;;;;;;29.87;1.73;;;;;;;23.18;59.79;98319.88;7313138;19;129515;-37
2023/10/30 05:16:41;;;;;;;90.77;4.67;;;;;;;23.27;59.55;98334.53;7314975;19;129339;-34
2023/10/30 05:19:07;;;;;;;35.58;1.92;;;;;;;23.32;59.50;98321.69;7314796;19;129036;-36
2023/10/30 05:21:32;;;;;;;43.50;2.47;;;;;;;23.32;59.60;98315.66;7313845;19;129501;-35
2023/10/30 05:23:57;;;;;;;26.33;1.60;;;;;;;23.40;59.59;98316.38;7311579;19;129661;-35
2023/10/30 05:26:23;;;;;;;75.97;4.17;;;;;;;23.43;59.71;98320.44;7315284;19;129244;-36
2023/10/30 05:28:48;;;;;;;43.57;2.50;;;;;;;23.50;59.12;98309.03;7316380;19;129355;-35
2023/10/30 05:31:13;;;;;;;35.07;2.00;;;;;;;23.50;59.55;98319.53;7313140;19;129410;-32
2023/10/30 05:33:39;;;;;;;46.70;2.38;;;;;;;23.57;58.67;98314.38;7312410;19;130298;-43
2023/10/30 05:36:05;;;;;;;64.07;3.43;;;;;;;23.61;58.90;98318.25;7312690;19;128952;-38
2023/10/30 05:38:30;;;;;;;53.08;3.22;;;;;;;23.63;59.13;98318.88;7314496;19;129041;-33
2023/10/30 05:40:57;;;;;;;51.53;2.90;;;;;;;23.43;59.00;98292.41;7313811;19;129503;-34
2023/10/30 05:43:22;;;;;;;38.67;2.17;;;;;;;23.54;59.52;98327.84;7311456;19;129499;-36
2023/10/30 05:45:48;;;;;;;65.53;3.47;;;;;;;23.45;59.43;98326.31;7315034;19;129206;-35
2023/10/30 05:48:14;;;;;;;32.13;1.83;;;;;;;23.37;59.92;98314.09;7315044;19;129160;-38
2023/10/30 05:50:39;;;;;;;38.20;2.28;;;;;;;23.30;59.54;98307.16;7314560;19;129679;-35
2023/10/30 05:53:05;;;;;;;97.25;4.97;;;;;;;23.25;60.35;98320.78;7311633;19;131121;-36
2023/10/30 05:55:30;;;;;;;64.90;3.70;;;;;;;23.11;60.15;98316.34;7312731;19;129537;-35
2023/10/30 05:57:56;;;;;;;24.00;1.53;;;;;;;23.10;60.79;98331.28;7314673;19;128915;-35
2023/10/30 06:00:23;;;;;;;65.03;3.72;;;;;;;23.03;60.80;98332.16;7313642;19;129966;-36
2023/10/30 06:02:49;;;;;;;76.57;3.72;;;;;;;22.97;61.17;98319.78;7313802;19;130405;-34
2023/10/30 06:05:15;;;;;;;33.73;2.03;;;;;;;22.93;61.30;98319.31;7314516;19;129738;-39
2023/10/30 06:07:41;;;;;;;34.83;2.10;;;;;;;22.91;61.58;98330.94;7312265;19;130746;-38
2023/10/30 06:10:09;;;;;;;57.42;3.67;;;;;;;22.76;61.46;98306.53;7310979;19;131175;-33
2023/10/30 06:12:34;;;;;;;71.00;5.00;;;;;;;22.68;60.79;98307.44;7312777;19;130380;-33
2023/10/30 06:15:00;;;;;;;56.00;4.50;;;;;;;22.75;61.00;98323.25;7312914;19;130439;-39
2023/10/30 06:17:25;;;;;;;47.13;3.57;;;;;;;22.75;61.54;98328.50;7313341;19;130134;-37
2023/10/30 06:19:50;;;;;;;28.67;2.23;;;;;;;22.73;62.05;98333.09;7311784;19;130177;-33
2023/10/30 06:22:16;;;;;;;78.65;4.95;;;;;;;22.58;61.57;98312.09;7307839;19;131091;-37
2023/10/30 06:24:41;;;;;;;66.87;4.60;;;;;;;22.76;61.74;98335.34;7312147;19;131271;-36
2023/10/30 06:27:06;;;;;;;47.80;3.53;;;;;;;22.77;61.57;98331.75;7311789;19;129046;-38
2023/10/30 06:29:32;;;;;;;65.50;4.37;;;;;;;22.75;62.05;98339.78;7311782;19;131276;-33
2023/10/30 06:31:58;;;;;;;62.63;4.17;;;;;;;22.73;61.58;98330.47;7311382;19;129367;-35
2023/10/30 06:34:23;;;;;;;43.57;3.30;;;;;;;22.89;61.35;98343.44;7311109;19;129314;-35
2023/10/30 06:36:49;;;;;;;74.07;4.80;;;;;;;22.80;61.11;98326.97;7312840;19;129821;-37
2023/10/30 06:39:19;;;;;;;71.87;4.40;;;;;;;23.00;60.56;98348.25;7309521;19;129077;-38
2023/10/30 06:41:45;;;;;;;70.65;4.20;;;;;;;23.09;60.35;98365.50;7310655;19;131115;-37
2023/10/30 06:44:10;;;;;;;35.57;2.33;;;;;;;23.12;60.70;98352.06;7310282;19;129474;-36
2023/10/30 06:46:36;;;;;;;79.75;5.03;;;;;;;23.15;59.58;98333.34;7308947;19;130127;-35
2023/10/30 06:49:01;;;;;;;56.77;3.80;;;;;;;23.37;59.74;98363.94;7309222;19;129067;-37
2023/10/30 06:51:27;;;;;;;74.00;4.27;;;;;;;23.37;59.79;98371.78;7306521;19;130174;-40
2023/10/30 06:53:52;;;;;;;46.87;3.17;;;;;;;23.35;59.61;98373.81;7305835;19;132326;-36
2023/10/30 06:56:18;;;;;;;53.30;3.40;;;;;;;23.35;59.99;98378.22;7308038;19;129625;-33
2023/10/30 06:58:43;;;;;;;68.82;4.05;;;;;;;23.27;59.64;98376.50;7312264;19;129058;-34
2023/10/30 07:01:11;;;;;;;102.65;6.32;;;;;;;23.21;60.15;98366.69;7307107;19;129118;-39
2023/10/30 07:03:37;;;;;;;62.10;4.00;;;;;;;23.17;60.23;98365.44;7308986;19;129530;-36
2023/10/30 07:06:02;;;;;;;30.03;2.13;;;;;;;22.99;60.58;98330.91;7312965;19;129293;-35
2023/10/30 07:08:28;;;;;;;88.20;5.20;;;;;;;23.06;61.00;98361.44;7311045;19;129529;-34
2023/10/30 07:10:53;;;;;;;35.10;2.33;;;;;;;23.03;60.73;98374.91;7312069;19;130485;-41
2023/10/30 07:13:19;;;;;;;32.80;2.43;;;;;;;22.96;60.89;98362.69;7308525;19;129303;-32
2023/10/30 07:15:44;;;;;;;93.97;12.47;;;;;;;22.96;61.00;98374.00;7307121;19;130125;-31
2023/10/30 07:18:09;;;;;;;124.07;16.27;;;;;;;22.97;60.22;98374.81;7307940;19;129342;-35
2023/10/30 07:20:35;;;;;;;159.27;22.27;;;;;;;22.95;60.82;98366.31;7307417;19;129485;-38
2023/10/30 07:23:00;;;;;;;93.50;17.53;;;;;;;22.87;60.96;98374.25;7308395;19;130225;-30
2023/10/30 07:25:25;;;;;;;75.93;18.70;;;;;;;22.86;60.79;98376.03;7311377;19;129529;-39
2023/10/30 07:27:51;;;;;;;119.70;18.75;;;;;;;22.81;60.74;98375.75;7308673;19;130942;-39
2023/10/30 07:30:16;;;;;;;75.80;16.27;;;;;;;22.66;61.29;98346.09;7305279;19;129669;-36
2023/10/30 07:32:43;;;;;;;117.60;18.30;;;;;;;22.78;61.09;98370.06;7303623;19;129106;-34
2023/10/30 07:35:09;;;;;;;82.32;15.77;;;;;;;22.78;61.47;98370.06;7309495;19;129259;-35
2023/10/30 07:37:35;;;;;;;149.40;19.07;;;;;;;22.82;62.13;98379.19;7307183;19;130223;-39
2023/10/30 07:40:01;;;;;;;64.47;15.87;;;;;;;22.78;61.30;98376.13;7310329;19;131117;-37
2023/10/30 07:42:26;;;;;;;71.03;15.27;;;;;;;22.88;61.02;98388.97;7308149;19;130278;-31
2023/10/30 07:44:51;;;;;;;145.63;18.87;;;;;;;22.93;60.67;98387.47;7308997;19;128976;-31
2023/10/30 07:47:17;;;;;;;80.33;14.90;;;;;;;23.00;60.66;98382.31;7306519;19;129788;-32
2023/10/30 07:49:42;;;;;;;65.87;13.47;;;;;;;23.08;60.62;98369.13;7307208;19;129625;-39
2023/10/30 07:52:08;;;;;;;211.87;21.97;;;;;;;23.13;60.40;98369.41;7299454;19;129835;-35
2023/10/30 07:54:33;;;;;;;83.00;13.13;;;;;;;23.21;60.23;98393.75;7311655;19;129900;-36
2023/10/30 07:56:59;;;;;;;77.23;12.00;;;;;;;23.31;60.04;98393.50;7312320;19;129969;-40
2023/10/30 07:59:24;;;;;;;55.13;11.83;;;;;;;23.38;59.29;98391.81;7304767;19;129642;-30
2023/10/30 08:01:50;;;;;;;48.03;11.10;;;;;;;23.45;59.41;98395.34;7309209;19;128926;-30
2023/10/30 08:04:15;;;;;;;202.80;20.00;;;;;;;23.42;59.47;98394.88;7302715;19;129657;-37
2023/10/30 08:06:41;;;;;;;100.13;13.63;;;;;;;23.36;59.75;98406.91;7309723;19;129847;-39
2023/10/30 08:09:08;;;;;;;180.17;17.57;;;;;;;23.32;60.29;98418.72;7305709;19;129655;-36
2023/10/30 08:11:36;;;;;;;47.85;10.90;;;;;;;23.26;60.43;98416.81;7304911;19;129047;-26
2023/10/30 08:14:02;;;;;;;84.13;12.75;;;;;;;23.21;60.04;98403.41;7308841;19;129195;-33
2023/10/30 08:16:27;;;;;;;49.30;10.10;;;;;;;23.18;60.79;98414.25;7303215;19;129332;-35
2023/10/30 08:18:53;;;;;;;48.93;11.33;;;;;;;23.13;60.03;98432.34;7310044;19;129636;-29
2023/10/30 08:21:18;;;;;;;66.77;12.27;;;;;;;23.10;60.73;98435.31;7302911;19;131035;-35
2023/10/30 08:23:43;;;;;;;117.60;14.80;;;;;;;23.06;61.16;98436.66;7307633;19;129596;-36
2023/10/30 08:26:09;;;;;;;55.97;11.67;;;;;;;23.04;61.06;98442.06;7308174;19;129365;-33
2023/10/30 08:28:38;;;;;;;60.77;12.30;;;;;;;23.01;61.43;98438.97;7309874;19;130339;-33
2023/10/30 08:31:05;;;;;;;52.15;12.55;;;;;;;22.96;60.84;98446.56;7308677;19;129252;-32
2023/10/30 08:33:30;;;;;;;96.93;13.90;;;;;;;22.92;61.53;98440.84;7307048;19;129374;-32
2023/10/30 08:35:55;;;;;;;119.47;14.77;;;;;;;22.91;61.64;98456.75;7306086;19;130650;-37
2023/10/30 08:38:21;;;;;;;83.83;13.50;;;;;;;22.88;61.67;98459.72;7308597;19;129850;-34
2023/10/30 08:40:46;;;;;;;97.80;14.07;;;;;;;22.87;61.75;98447.63;7306701;19;129117;-42
2023/10/30 08:43:11;;;;;;;99.00;14.20;;;;;;;22.86;61.51;98451.22;7305861;19;131314;-38
2023/10/30 08:45:37;;;;;;;68.03;13.07;;;;;;;22.83;61.30;98454.19;7316352;19;130568;-42
2023/10/30 08:48:03;;;;;;;58.47;11.80;;;;;;;22.83;61.86;98459.44;7311326;19;130839;-33
2023/10/30 08:50:29;;;;;;;105.55;15.25;;;;;;;22.78;61.75;98456.53;7315848;19;129592;-38
2023/10/30 08:52:54;;;;;;;99.20;15.43;;;;;;;22.73;61.80;98464.09;7309462;19;129653;-32
2023/10/30 08:55:20;;;;;;;71.77;13.73;;;;;;;22.80;62.03;98457.19;7314456;19;130473;-38
2023/10/30 08:57:45;;;;;;;152.77;17.33;;;;;;;22.80;61.66;98458.00;7313957;19;130295;-34
2023/10/30 09:00:11;;;;;;;88.33;13.73;;;;;;;22.84;62.00;98448.00;7316420;19;129262;-33
2023/10/30 09:02:38;;;;;;;68.83;12.23;;;;;;;22.82;61.92;98429.00;7315977;19;129394;-36
2023/10/30 09:05:04;;;;;;;72.28;12.75;;;;;;;22.91;61.56;98443.66;7315019;19;130249;-35
2023/10/30 09:07:32;;;;;;;48.27;10.77;;;;;;;22.97;60.93;98443.75;7315218;19;131106;-34
2023/10/30 09:09:57;;;;;;;122.50;14.60;;;;;;;23.07;60.71;98448.78;7310525;19;131424;-36
2023/10/30 09:12:23;;;;;;;72.90;12.00;;;;;;;23.11;60.52;98443.00;7315170;19;128912;-41
2023/10/30 09:14:48;;;;;;;68.13;11.70;;;;;;;23.19;61.00;98436.84;7313726;19;129181;-39
2023/10/30 09:17:15;;;;;;;57.07;11.13;;;;;;;23.20;59.74;98435.88;7314694;19;129577;-35
2023/10/30 09:19:40;;;;;;;137.38;16.10;;;;;;;23.21;59.37;98413.91;7308033;19;129950;-35
2023/10/30 09:22:06;;;;;;;46.37;10.97;;;;;;;23.37;59.42;98434.75;7315155;19;129164;-38
2023/10/30 09:24:31;;;;;;;69.23;12.40;;;;;;;23.35;59.27;98435.94;7315771;19;131466;-35
2023/10/30 09:26:56;;;;;;;60.53;11.57;;;;;;;23.34;58.88;98434.31;7314513;19;130272;-42
2023/10/30 09:29:22;;;;;;;87.60;13.97;;;;;;;23.28;59.17;98429.75;7310915;19;129041;-34
2023/10/30 09:31:49;;;;;;;84.60;14.67;;;;;;;23.24;59.45;98443.22;7313243;19;129379;-39
2023/10/30 09:34:15;;;;;;;108.13;17.13;;;;;;;23.20;58.80;98443.75;7308220;19;129693;-40
2023/10/30 09:36:40;;;;;;;64.97;15.03;;;;;;;23.16;58.73;98437.22;7311535;19;129636;-35
2023/10/30 09:39:07;;;;;;;129.60;18.60;;;;;;;23.11;59.02;98429.06;7315031;19;129209;-38
2023/10/30 09:41:38;;;;;;;53.97;14.60;;;;;;;23.10;59.47;98423.03;7314136;19;128746;-33
2023/10/30 09:44:06;;;;;;;80.03;14.95;;;;;;;23.06;59.67;98423.53;7314275;19;129660;-33
2023/10/30 09:46:32;;;;;;;70.53;15.18;;;;;;;23.00;59.87;98426.88;7306875;19;132287;-35
2023/10/30 09:48:58;;;;;;;134.77;18.60;;;;;;;22.99;59.75;98441.78;7313289;19;129427;-39
2023/10/30 09:51:24;;;;;;;84.60;16.10;;;;;;;22.96;59.88;98433.44;7309731;19;129267;-41
2023/10/30 09:53:53;;;;;;;62.28;15.45;;;;;;;22.95;59.75;98432.66;7312065;19;129905;-37
2023/10/30 09:56:19;;;;;;;57.80;13.85;;;;;;;22.92;60.16;98440.06;7311163;19;129700;-39
2023/10/30 09:58:46;;;;;;;138.23;19.30;;;;;;;22.88;60.57;98423.03;7311659;19;130202;-32
2023/10/30 10:01:11;;;;;;;;;;;;;;;22.90;60.75;98426.31;7311371;19;130510;-34
2023/10/30 10:03:37;;;;;;;66.85;14.10;;;;;;;22.86;60.55;98417.16;7306609;19;129818;-35
2023/10/30 10:06:02;;;;;;;96.60;18.03;;;;;;;22.89;60.60;98419.44;7307473;19;130678;-36
2023/10/30 10:08:28;;;;;;;102.00;15.70;;;;;;;22.88;61.24;98417.78;7309758;19;130192;-37
2023/10/30 10:10:55;;;;;;;79.07;15.33;;;;;;;22.83;60.82;98407.84;7306459;19;130250;-36
2023/10/30 10:13:21;;;;;;;55.60;14.88;;;;;;;22.78;60.77;98401.50;7311390;19;129441;-37
2023/10/30 10:15:47;;;;;;;98.60;16.23;;;;;;;22.81;61.24;98396.72;7303603;19;129978;-31
2023/10/30 10:18:25;;;;;;;99.23;16.30;;;;;;;22.75;61.73;98401.84;7311772;19;131904;-38
2023/10/30 10:21:04;;;;;;;120.80;17.60;;;;;;;22.74;61.84;98400.25;7309679;19;129822;-34
2023/10/30 10:23:34;;;;;;;65.88;15.10;;;;;;;22.58;61.33;98395.09;7313067;19;131040;-37
2023/10/30 10:26:04;;;;;;;58.30;14.02;;;;;;;22.70;61.34;98405.00;7309512;19;129160;-31
2023/10/30 10:28:31;;;;;;;67.93;14.30;;;;;;;22.71;60.85;98400.59;7309547;19;129501;-33
2023/10/30 10:30:57;;;;;;;137.75;18.45;;;;;;;22.73;61.56;98403.81;7305881;19;129868;-36
2023/10/30 10:33:29;;;;;;;75.67;14.37;;;;;;;22.78;60.96;98401.50;7307808;19;130129;-40
2023/10/30 10:36:01;;;;;;;109.50;17.15;;;;;;;22.83;61.37;98393.91;7306224;19;130328;-39
2023/10/30 10:38:27;;;;;;;65.88;13.55;;;;;;;22.88;60.52;98379.31;7305405;19;129865;-36
2023/10/30 10:40:55;;;;;;;117.50;16.63;;;;;;;22.95;60.64;98367.13;7308728;19;129520;-43
2023/10/30 10:43:22;;;;;;;153.30;17.35;;;;;;;23.04;59.95;98375.72;7289720;19;131946;-38
2023/10/30 10:45:51;;;;;;;137.75;17.98;;;;;;;23.07;59.97;98359.66;7299564;19;132004;-42
2023/10/30 10:48:18;;;;;;;61.38;13.07;;;;;;;23.19;60.16;98360.81;7309547;19;130187;-40
2023/10/30 10:50:44;;;;;;;64.80;11.38;;;;;;;23.24;59.76;98355.84;7311348;19;129165;-37
2023/10/30 10:53:11;;;;;;;97.13;13.13;;;;;;;23.29;60.00;98355.34;7310638;19;130814;-34
2023/10/30 10:55:55;;;;;;;68.43;11.98;;;;;;;23.27;59.38;98350.28;7309012;19;130587;-35
2023/10/30 10:58:24;;;;;;;51.38;10.75;;;;;;;23.24;59.79;98361.09;7312702;19;129631;-35
2023/10/30 11:00:52;;;;;;;64.50;10.85;;;;;;;23.21;59.59;98343.94;7310912;19;128908;-33
2023/10/30 11:03:21;;;;;;;43.05;10.00;;;;;;;23.19;60.26;98347.69;7306480;19;130694;-32
2023/10/30 11:05:49;;;;;;;90.90;12.07;;;;;;;23.14;60.39;98344.81;7311144;19;129856;-38
2023/10/30 11:08:52;;;;;;;80.53;11.98;;;;;;;23.08;60.65;98342.91;7309630;19;128931;-36